createdAt,value
2022-11-30T00:01:18.311Z,101723.28
2022-11-30T00:03:45.347Z,101718.97
2022-11-30T00:06:17.118Z,101724.31
2022-11-30T00:08:44.045Z,101726.03
2022-11-30T00:11:10.974Z,101718.09
2022-11-30T00:13:37.659Z,101718.09
2022-11-30T00:16:04.845Z,101722.47
2022-11-30T00:18:31.616Z,101729.31
2022-11-30T00:21:03.256Z,101725.91
2022-11-30T00:23:41.091Z,101729.34
2022-11-30T00:26:11.783Z,101737.13
2022-11-30T00:28:39.282Z,101722.50
2022-11-30T00:31:10.128Z,101700.78
2022-11-30T00:33:38.419Z,101736.22
2022-11-30T00:36:12.240Z,101725.91
2022-11-30T00:38:39.311Z,101723.28
2022-11-30T00:41:07.674Z,101729.34
2022-11-30T00:43:34.322Z,101732.75
2022-11-30T00:46:01.314Z,101723.13
2022-11-30T00:48:28.501Z,101741.38
2022-11-30T00:50:55.228Z,101727.34
2022-11-30T00:53:22.590Z,101737.66
2022-11-30T00:55:49.705Z,101730.72
2022-11-30T00:58:16.533Z,101742.91
2022-11-30T01:00:43.479Z,101716.97
2022-11-30T01:03:10.531Z,101722.28
2022-11-30T01:05:37.258Z,101726.69
2022-11-30T01:08:06.190Z,101691.00
2022-11-30T01:10:33.803Z,101742.81
2022-11-30T01:13:01.153Z,101742.75
2022-11-30T01:15:28.029Z,101733.19
2022-11-30T01:17:54.778Z,101730.84
2022-11-30T01:20:21.868Z,101701.38
2022-11-30T01:22:48.443Z,101723.94
2022-11-30T01:25:15.175Z,101736.13
2022-11-30T01:27:42.087Z,101731.88
2022-11-30T01:30:09.401Z,101734.44
2022-11-30T01:32:36.064Z,101741.41
2022-11-30T01:35:02.720Z,101718.97
2022-11-30T01:37:30.217Z,101707.66
2022-11-30T01:39:57.150Z,101739.78
2022-11-30T01:42:24.385Z,101744.97
2022-11-30T01:44:54.886Z,101750.22
2022-11-30T01:47:45.310Z,101745.91
2022-11-30T01:50:24.385Z,101749.22
2022-11-30T01:52:54.092Z,101750.06
2022-11-30T01:55:24.521Z,101751.88
2022-11-30T01:58:09.797Z,101751.03
2022-11-30T02:00:36.424Z,101740.59
2022-11-30T02:03:24.680Z,101750.16
2022-11-30T02:05:51.404Z,101757.94
2022-11-30T02:08:19.470Z,101737.03
2022-11-30T02:10:53.049Z,101757.88
2022-11-30T02:13:25.772Z,101753.50
2022-11-30T02:16:29.584Z,101750.06
2022-11-30T02:19:05.417Z,101751.03
2022-11-30T02:22:07.059Z,101748.47
2022-11-30T02:25:14.437Z,101694.72
2022-11-30T02:27:59.331Z,101752.69
2022-11-30T02:30:26.359Z,101751.69
2022-11-30T02:33:07.155Z,101743.09
2022-11-30T02:35:37.120Z,101718.00
2022-11-30T02:38:05.277Z,101761.44
2022-11-30T02:40:32.329Z,101752.81
2022-11-30T02:43:02.436Z,101732.03
2022-11-30T02:45:58.484Z,101753.75
2022-11-30T02:49:09.351Z,101759.84
2022-11-30T02:51:38.779Z,101744.19
2022-11-30T02:54:05.653Z,101748.56
2022-11-30T02:56:33.619Z,101751.19
2022-11-30T02:59:00.577Z,101734.72
2022-11-30T03:01:27.356Z,101740.78
2022-11-30T03:03:54.227Z,101754.75
2022-11-30T03:06:20.899Z,101742.63
2022-11-30T03:08:47.592Z,101740.91
2022-11-30T03:11:14.211Z,101711.41
2022-11-30T03:13:40.832Z,101753.94
2022-11-30T03:16:14.014Z,101720.16
2022-11-30T03:18:40.992Z,101755.75
2022-11-30T03:21:09.812Z,101747.09
2022-11-30T03:23:37.341Z,101734.94
2022-11-30T03:26:05.276Z,101749.66
2022-11-30T03:28:32.619Z,101735.84
2022-11-30T03:30:59.771Z,101709.69
2022-11-30T03:33:26.478Z,101729.63
2022-11-30T03:36:04.412Z,101751.16
2022-11-30T03:38:31.996Z,101750.25
2022-11-30T03:41:10.853Z,101745.13
2022-11-30T03:43:37.505Z,101713.94
2022-11-30T03:46:04.880Z,101732.16
2022-11-30T03:48:31.808Z,101720.00
2022-11-30T03:50:58.982Z,101756.38
2022-11-30T03:53:25.944Z,101770.25
2022-11-30T03:56:01.736Z,101769.38
2022-11-30T03:58:29.230Z,101771.94
2022-11-30T04:01:04.921Z,101785.78
2022-11-30T04:03:32.247Z,101788.44
2022-11-30T04:05:59.669Z,101789.31
2022-11-30T04:08:27.382Z,101779.84
2022-11-30T04:10:55.831Z,101794.53
2022-11-30T04:13:23.424Z,101790.91
2022-11-30T04:15:52.158Z,101796.13
2022-11-30T04:18:20.125Z,101791.78
2022-11-30T04:20:47.517Z,101788.31
2022-11-30T04:23:14.274Z,101785.63
2022-11-30T04:25:42.016Z,101801.28
2022-11-30T04:28:09.925Z,101804.81
2022-11-30T04:30:37.816Z,101798.78
2022-11-30T04:33:05.561Z,101803.03
2022-11-30T04:35:32.788Z,101783.97
2022-11-30T04:38:00.423Z,101788.31
2022-11-30T04:40:27.233Z,101785.63
2022-11-30T04:42:54.084Z,101771.81
2022-11-30T04:45:20.777Z,101757.03
2022-11-30T04:47:47.425Z,101745.84
2022-11-30T04:50:14.048Z,101741.50
2022-11-30T04:52:40.685Z,101748.50
2022-11-30T04:55:07.764Z,101784.97
2022-11-30T04:57:34.505Z,101793.63
2022-11-30T05:00:01.159Z,101737.31
2022-11-30T05:02:30.520Z,101778.91
2022-11-30T05:04:57.143Z,101789.13
2022-11-30T05:07:23.792Z,101802.19
2022-11-30T05:09:50.537Z,101797.03
2022-11-30T05:12:17.246Z,101775.31
2022-11-30T05:14:43.900Z,101807.38
2022-11-30T05:17:10.653Z,101801.38
2022-11-30T05:19:37.315Z,101805.75
2022-11-30T05:22:03.950Z,101783.19
2022-11-30T05:24:30.588Z,101763.28
2022-11-30T05:26:57.301Z,101796.16
2022-11-30T05:29:24.132Z,101791.78
2022-11-30T05:31:51.046Z,101792.59
2022-11-30T05:34:17.808Z,101782.94
2022-11-30T05:36:44.519Z,101815.03
2022-11-30T05:39:11.323Z,101818.53
2022-11-30T05:41:38.043Z,101811.41
2022-11-30T05:44:05.379Z,101806.19
2022-11-30T05:46:32.064Z,101771.34
2022-11-30T05:48:58.736Z,101796.56
2022-11-30T05:51:25.403Z,101781.88
2022-11-30T05:53:52.082Z,101808.81
2022-11-30T05:56:20.647Z,101794.09
2022-11-30T05:58:48.821Z,101830.69
2022-11-30T06:01:24.810Z,101835.09
2022-11-30T06:03:52.077Z,101822.22
2022-11-30T06:06:19.492Z,101835.28
2022-11-30T06:08:47.573Z,101831.91
2022-11-30T06:11:15.090Z,101824.09
2022-11-30T06:13:41.801Z,101825.84
2022-11-30T06:16:09.411Z,101825.03
2022-11-30T06:18:37.861Z,101802.47
2022-11-30T06:21:07.549Z,101835.47
2022-11-30T06:23:34.809Z,101819.03
2022-11-30T06:26:06.680Z,101830.34
2022-11-30T06:28:33.992Z,101832.13
2022-11-30T06:31:03.786Z,101812.19
2022-11-30T06:33:30.909Z,101823.50
2022-11-30T06:35:57.605Z,101824.34
2022-11-30T06:38:25.955Z,101803.53
2022-11-30T06:40:53.449Z,101802.63
2022-11-30T06:43:20.432Z,101781.88
2022-11-30T06:45:47.762Z,101758.47
2022-11-30T06:48:14.757Z,101774.06
2022-11-30T06:50:45.480Z,101810.50
2022-11-30T06:53:15.933Z,101788.88
2022-11-30T06:55:43.357Z,101791.53
2022-11-30T06:58:11.213Z,101772.47
2022-11-30T07:00:41.871Z,101804.56
2022-11-30T07:03:09.558Z,101798.50
2022-11-30T07:05:44.335Z,101795.91
2022-11-30T07:08:12.420Z,101841.84
2022-11-30T07:10:41.225Z,101845.34
2022-11-30T07:13:12.134Z,101831.47
2022-11-30T07:15:40.341Z,101744.88
2022-11-30T07:18:08.065Z,101810.69
2022-11-30T07:20:35.195Z,101832.34
2022-11-30T07:23:20.886Z,101798.56
2022-11-30T07:26:06.418Z,101823.69
2022-11-30T07:28:35.146Z,101857.50
2022-11-30T07:31:03.468Z,101849.69
2022-11-30T07:33:31.945Z,101844.47
2022-11-30T07:35:59.539Z,101836.66
2022-11-30T07:38:26.260Z,101828.88
2022-11-30T07:40:53.064Z,101824.56
2022-11-30T07:43:19.716Z,101867.91
2022-11-30T07:45:52.395Z,101857.50
2022-11-30T07:48:20.055Z,101859.22
2022-11-30T07:50:47.567Z,101795.09
2022-11-30T07:53:15.095Z,101873.09
2022-11-30T07:55:42.705Z,101863.53
2022-11-30T07:58:16.998Z,101859.19
2022-11-30T08:00:44.142Z,101830.63
2022-11-30T08:03:10.976Z,101846.19
2022-11-30T08:05:37.689Z,101854.88
2022-11-30T08:08:04.333Z,101848.81
2022-11-30T08:10:31.396Z,101879.13
2022-11-30T08:12:58.053Z,101871.38
2022-11-30T08:15:31.882Z,101831.44
2022-11-30T08:18:05.363Z,101830.63
2022-11-30T08:20:32.105Z,101854.00
2022-11-30T08:22:58.951Z,101911.22
2022-11-30T08:25:25.624Z,101858.34
2022-11-30T08:27:52.345Z,101903.41
2022-11-30T08:30:19.084Z,101882.56
2022-11-30T08:32:45.775Z,101864.38
2022-11-30T08:35:12.709Z,101888.63
2022-11-30T08:37:39.351Z,101904.22
2022-11-30T08:40:06.672Z,101867.84
2022-11-30T08:42:33.349Z,101904.25
2022-11-30T08:45:00.482Z,101895.56
2022-11-30T08:47:30.344Z,101940.69
2022-11-30T08:49:58.234Z,101884.31
2022-11-30T08:52:25.204Z,101912.91
2022-11-30T08:54:52.280Z,101878.25
2022-11-30T08:57:21.398Z,101949.34
2022-11-30T08:59:48.855Z,101939.84
2022-11-30T09:02:18.088Z,101933.75
2022-11-30T09:04:47.609Z,101891.25
2022-11-30T09:07:14.749Z,101889.50
2022-11-30T09:09:41.420Z,101912.91
2022-11-30T09:12:08.229Z,101921.56
2022-11-30T09:14:35.173Z,101879.09
2022-11-30T09:17:02.103Z,101944.94
2022-11-30T09:19:28.802Z,101939.75
2022-11-30T09:21:55.437Z,101924.16
2022-11-30T09:24:22.318Z,101936.28
2022-11-30T09:26:49.023Z,101939.78
2022-11-30T09:29:20.976Z,101947.56
2022-11-30T09:31:49.143Z,101921.63
2022-11-30T09:34:15.906Z,101938.97
2022-11-30T09:36:42.568Z,101925.97
2022-11-30T09:39:12.840Z,101919.88
2022-11-30T09:41:58.746Z,101951.94
2022-11-30T09:44:34.390Z,101949.34
2022-11-30T09:47:25.024Z,101960.59
2022-11-30T09:49:54.070Z,101943.25
2022-11-30T09:52:33.881Z,101919.00
2022-11-30T09:55:07.145Z,101941.44
2022-11-30T09:57:33.628Z,101962.25
2022-11-30T10:00:05.173Z,101938.84
2022-11-30T10:02:38.123Z,101905.06
2022-11-30T10:05:20.044Z,101963.09
2022-11-30T10:08:17.692Z,101956.09
2022-11-30T10:11:03.509Z,101954.34
2022-11-30T10:13:48.188Z,101945.69
2022-11-30T10:16:42.422Z,101961.25
2022-11-30T10:19:21.205Z,101952.63
2022-11-30T10:21:57.884Z,101918.81
2022-11-30T10:25:03.876Z,101965.56
2022-11-30T10:27:48.994Z,101969.00
2022-11-30T10:30:18.981Z,101967.25
2022-11-30T10:32:51.092Z,101964.59
2022-11-30T10:35:28.651Z,101940.34
2022-11-30T10:37:58.511Z,101948.16
2022-11-30T10:40:49.498Z,101986.22
2022-11-30T10:43:34.170Z,101986.22
2022-11-30T10:46:00.912Z,101947.16
2022-11-30T10:48:33.187Z,101989.53
2022-11-30T10:51:01.916Z,101961.09
2022-11-30T10:53:28.693Z,101956.75
2022-11-30T10:55:57.902Z,101981.84
2022-11-30T10:58:36.891Z,101984.41
2022-11-30T11:01:10.249Z,101978.25
2022-11-30T11:03:37.884Z,101964.44
2022-11-30T11:06:15.838Z,101988.66
2022-11-30T11:08:42.797Z,101938.38
2022-11-30T11:11:39.040Z,101979.00
2022-11-30T11:14:16.200Z,101929.63
2022-11-30T11:17:00.217Z,101975.47
2022-11-30T11:19:34.755Z,101980.69
2022-11-30T11:22:04.953Z,101919.28
2022-11-30T11:24:32.987Z,101944.41
2022-11-30T11:26:59.892Z,101941.03
2022-11-30T11:29:33.145Z,101942.75
2022-11-30T11:32:26.135Z,101971.97
2022-11-30T11:34:53.651Z,101971.16
2022-11-30T11:37:29.760Z,101977.28
2022-11-30T11:40:08.189Z,101983.34
2022-11-30T11:42:43.057Z,101979.00
2022-11-30T11:45:23.827Z,101985.97
2022-11-30T11:47:59.775Z,101978.09
2022-11-30T11:53:55.927Z,101902.78
2022-11-30T11:56:27.141Z,101973.78
2022-11-30T11:59:23.442Z,101907.09
2022-11-30T12:02:29.614Z,101971.09
2022-11-30T12:05:02.896Z,101935.69
2022-11-30T12:07:38.637Z,101922.69
2022-11-30T12:13:17.146Z,101979.94
2022-11-30T12:16:05.773Z,101984.13
2022-11-30T12:18:32.444Z,101978.09
2022-11-30T12:21:15.055Z,101934.81
2022-11-30T12:24:03.522Z,101981.53
2022-11-30T12:27:04.598Z,101941.69
2022-11-30T12:30:17.678Z,101983.16
2022-11-30T12:33:03.019Z,101976.25
2022-11-30T12:36:07.245Z,101968.44
2022-11-30T12:39:11.049Z,101962.44
2022-11-30T12:41:53.311Z,101936.59
2022-11-30T12:44:42.067Z,101930.47
2022-11-30T12:47:30.534Z,101963.28
2022-11-30T12:50:26.521Z,101970.16
2022-11-30T12:53:28.665Z,101963.31
2022-11-30T12:56:12.895Z,101967.63
2022-11-30T12:59:11.714Z,101965.84
2022-11-30T13:01:41.529Z,101963.13
2022-11-30T13:04:13.241Z,101962.31
2022-11-30T13:06:45.734Z,101947.47
2022-11-30T13:09:29.937Z,101936.31
2022-11-30T13:12:03.580Z,101951.75
2022-11-30T13:14:31.583Z,101938.06
2022-11-30T13:17:19.150Z,101962.28
2022-11-30T13:19:49.155Z,101965.84
2022-11-30T13:22:51.661Z,101931.97
2022-11-30T13:26:07.366Z,101969.41
2022-11-30T13:28:50.749Z,101973.69
2022-11-30T13:31:24.533Z,101963.31
2022-11-30T13:33:53.951Z,101970.13
2022-11-30T13:36:41.559Z,101960.53
2022-11-30T13:39:14.117Z,101965.75
2022-11-30T13:41:49.656Z,101970.09
2022-11-30T13:44:24.784Z,101971.06
2022-11-30T13:46:53.299Z,101949.38
2022-11-30T13:49:28.157Z,101968.56
2022-11-30T13:52:20.728Z,101966.66
2022-11-30T13:54:46.813Z,101971.88
2022-11-30T13:57:28.954Z,101971.03
2022-11-30T13:59:57.753Z,101953.75
2022-11-30T14:02:33.848Z,101975.47
2022-11-30T14:05:18.904Z,101969.31
2022-11-30T14:07:47.038Z,101971.19
2022-11-30T14:10:40.089Z,101972.03
2022-11-30T14:13:09.928Z,101971.94
2022-11-30T14:15:39.413Z,101980.59
2022-11-30T14:18:09.039Z,101980.69
2022-11-30T14:20:57.561Z,101989.38
2022-11-30T14:23:39.308Z,101988.44
2022-11-30T14:26:12.972Z,101991.00
2022-11-30T14:28:52.289Z,101969.38
2022-11-30T14:31:25.041Z,101996.19
2022-11-30T14:33:54.599Z,102000.56
2022-11-30T14:36:23.207Z,102003.16
2022-11-30T14:38:49.898Z,101991.03
2022-11-30T14:41:22.202Z,101941.81
2022-11-30T14:44:07.047Z,101977.19
2022-11-30T14:46:35.915Z,101983.28
2022-11-30T14:49:22.501Z,101995.41
2022-11-30T14:52:03.639Z,102009.69
2022-11-30T14:54:33.249Z,101991.34
2022-11-30T14:57:07.426Z,101997.41
2022-11-30T14:59:48.009Z,102001.72
2022-11-30T15:02:20.483Z,101973.13
2022-11-30T15:04:49.942Z,101981.84
2022-11-30T15:07:17.414Z,101986.16
2022-11-30T15:09:47.824Z,102003.50
2022-11-30T15:12:23.810Z,102010.38
2022-11-30T15:15:05.763Z,102001.66
2022-11-30T15:17:47.268Z,101944.56
2022-11-30T15:20:20.784Z,101954.09
2022-11-30T15:22:47.556Z,101993.91
2022-11-30T15:25:14.706Z,101988.75
2022-11-30T15:27:42.262Z,101952.41
2022-11-30T15:30:18.114Z,101961.84
2022-11-30T15:32:46.815Z,101946.34
2022-11-30T15:35:23.189Z,101997.41
2022-11-30T15:37:50.886Z,102007.84
2022-11-30T15:40:33.815Z,102009.53
2022-11-30T15:43:01.469Z,101971.47
2022-11-30T15:45:31.611Z,101955.06
2022-11-30T15:48:00.832Z,101990.59
2022-11-30T15:50:30.047Z,102027.72
2022-11-30T15:53:00.940Z,102032.19
2022-11-30T15:55:40.936Z,102030.47
2022-11-30T15:58:23.778Z,102033.03
2022-11-30T16:01:12.215Z,102033.78
2022-11-30T16:04:07.998Z,102039.06
2022-11-30T16:06:34.627Z,102033.81
2022-11-30T16:09:18.053Z,102019.97
2022-11-30T16:11:44.692Z,102042.38
2022-11-30T16:14:16.916Z,102023.38
2022-11-30T16:16:44.609Z,102047.66
2022-11-30T16:19:11.383Z,102014.75
2022-11-30T16:21:38.722Z,101991.34
2022-11-30T16:24:05.943Z,102008.69
2022-11-30T16:29:20.115Z,101973.25
2022-11-30T16:31:46.826Z,101993.88
2022-11-30T16:34:13.564Z,101989.66
2022-11-30T16:36:40.203Z,101986.19
2022-11-30T16:39:06.886Z,102009.53
2022-11-30T16:41:35.086Z,101979.19
2022-11-30T16:44:01.921Z,101993.88
2022-11-30T16:46:30.118Z,102018.13
2022-11-30T16:48:56.916Z,102024.25
2022-11-30T16:51:28.091Z,102016.44
2022-11-30T16:53:55.786Z,101983.56
2022-11-30T16:56:22.546Z,101959.16
2022-11-30T16:58:49.297Z,101976.63
2022-11-30T17:01:38.559Z,101941.00
2022-11-30T17:04:22.996Z,101949.56
2022-11-30T17:06:53.686Z,101998.97
2022-11-30T17:09:23.217Z,101996.31
2022-11-30T17:11:51.146Z,102006.78
2022-11-30T17:14:18.964Z,102012.91
2022-11-30T17:16:45.697Z,101977.50
2022-11-30T17:19:12.802Z,101984.44
2022-11-30T17:21:42.381Z,101995.66
2022-11-30T17:24:09.147Z,101975.69
2022-11-30T17:26:35.875Z,101978.25
2022-11-30T17:29:03.162Z,102000.84
2022-11-30T17:31:30.073Z,102008.63
2022-11-30T17:33:56.815Z,101965.34
2022-11-30T17:36:23.602Z,102024.19
2022-11-30T17:38:50.722Z,101997.34
2022-11-30T17:41:19.801Z,101963.59
2022-11-30T17:43:48.125Z,102027.63
2022-11-30T17:46:17.372Z,102020.72
2022-11-30T17:48:44.277Z,102031.16
2022-11-30T17:51:11.699Z,102044.97
2022-11-30T17:53:39.338Z,102024.19
2022-11-30T17:56:07.645Z,101979.16
2022-11-30T17:58:41.466Z,102006.00
2022-11-30T18:01:24.223Z,102045.00
2022-11-30T18:03:53.494Z,102047.63
2022-11-30T18:06:20.700Z,102011.25
2022-11-30T18:08:47.719Z,102024.22
2022-11-30T18:11:20.550Z,102032.03
2022-11-30T18:13:48.343Z,102034.69
2022-11-30T18:16:18.528Z,102062.38
2022-11-30T18:18:47.974Z,102005.22
2022-11-30T18:21:18.076Z,102070.25
2022-11-30T18:23:45.085Z,102042.47
2022-11-30T18:26:14.235Z,102051.97
2022-11-30T18:28:41.065Z,102026.84
2022-11-30T18:31:07.921Z,102003.53
2022-11-30T18:33:36.199Z,102051.91
2022-11-30T18:36:06.783Z,102025.97
2022-11-30T18:38:38.005Z,102038.06
2022-11-30T18:41:06.420Z,102062.34
2022-11-30T18:43:34.013Z,102039.91
2022-11-30T18:46:05.525Z,102072.72
2022-11-30T18:48:32.740Z,102006.88
2022-11-30T18:50:59.753Z,102075.31
2022-11-30T18:53:26.568Z,102023.44
2022-11-30T18:55:53.206Z,102078.78
2022-11-30T18:58:19.833Z,102051.06
2022-11-30T19:00:46.523Z,102062.31
2022-11-30T19:03:13.227Z,102049.34
2022-11-30T19:05:40.968Z,102033.72
2022-11-30T19:08:11.456Z,102050.19
2022-11-30T19:10:40.114Z,102103.09
2022-11-30T19:13:07.774Z,102090.06
2022-11-30T19:15:42.081Z,102064.94
2022-11-30T19:18:11.197Z,102057.16
2022-11-30T19:20:41.634Z,102096.19
2022-11-30T19:23:08.996Z,102063.22
2022-11-30T19:25:35.721Z,102093.66
2022-11-30T19:28:02.412Z,102077.28
2022-11-30T19:30:29.297Z,102058.97
2022-11-30T19:32:56.136Z,102117.88
2022-11-30T19:35:25.224Z,102116.25
2022-11-30T19:37:52.413Z,102105.00
2022-11-30T19:40:19.293Z,102066.88
2022-11-30T19:42:46.138Z,102111.03
2022-11-30T19:45:12.775Z,102078.84
2022-11-30T19:47:39.566Z,102063.38
2022-11-30T19:50:06.730Z,102090.25
2022-11-30T19:52:33.439Z,102065.00
2022-11-30T19:55:00.036Z,102073.75
2022-11-30T19:57:26.793Z,102101.44
2022-11-30T19:59:53.838Z,102115.31
2022-11-30T20:02:20.799Z,102117.09
2022-11-30T20:04:47.787Z,102103.19
2022-11-30T20:07:15.091Z,102099.72
2022-11-30T20:09:41.794Z,102110.94
2022-11-30T20:12:08.482Z,102117.16
2022-11-30T20:14:36.878Z,102093.72
2022-11-30T20:17:06.653Z,102099.78
2022-11-30T20:19:33.507Z,102114.53
2022-11-30T20:22:00.660Z,102119.69
2022-11-30T20:24:27.533Z,102100.56
2022-11-30T20:26:54.297Z,102099.66
2022-11-30T20:29:21.019Z,102097.91
2022-11-30T20:31:49.576Z,102113.44
2022-11-30T20:34:16.985Z,102114.38
2022-11-30T20:36:44.290Z,102123.09
2022-11-30T20:39:11.935Z,102126.63
2022-11-30T20:41:38.560Z,102093.66
2022-11-30T20:44:05.605Z,102103.31
2022-11-30T20:46:36.798Z,102083.34
2022-11-30T20:49:11.723Z,102120.53
2022-11-30T20:51:38.359Z,102088.63
2022-11-30T20:54:07.128Z,102121.63
2022-11-30T20:56:38.422Z,102128.44
2022-11-30T20:59:08.052Z,102125.88
2022-11-30T21:01:35.166Z,102112.78
2022-11-30T21:04:02.031Z,102108.41
2022-11-30T21:06:32.950Z,102101.44
2022-11-30T21:08:59.812Z,102088.38
2022-11-30T21:11:27.995Z,102122.31
2022-11-30T21:13:56.241Z,102114.41
2022-11-30T21:16:28.140Z,102123.03
2022-11-30T21:19:00.324Z,102119.41
2022-11-30T21:21:32.709Z,102103.69
2022-11-30T21:24:01.294Z,102106.25
2022-11-30T21:26:34.028Z,102111.75
2022-11-30T21:29:04.140Z,102115.31
2022-11-30T21:31:31.530Z,102121.50
2022-11-30T21:33:58.259Z,102080.69
2022-11-30T21:36:25.396Z,102124.94
2022-11-30T21:39:06.136Z,102131.03
2022-11-30T21:41:38.875Z,102115.44
2022-11-30T21:44:07.653Z,102131.06
2022-11-30T21:46:34.489Z,102125.88
2022-11-30T21:49:01.766Z,102111.91
2022-11-30T21:51:30.179Z,102118.97
2022-11-30T21:53:59.065Z,102119.81
2022-11-30T21:56:28.592Z,102122.47
2022-11-30T21:58:55.851Z,102127.59
2022-11-30T22:01:29.777Z,102118.91
2022-11-30T22:03:59.182Z,102097.06
2022-11-30T22:06:27.705Z,102119.75
2022-11-30T22:08:57.501Z,102122.28
2022-11-30T22:11:24.194Z,102118.66
2022-11-30T22:13:53.013Z,102115.16
2022-11-30T22:16:21.899Z,102113.53
2022-11-30T22:18:51.781Z,102119.44
2022-11-30T22:21:21.325Z,102093.41
2022-11-30T22:23:56.703Z,102117.75
2022-11-30T22:26:29.295Z,102122.06
2022-11-30T22:29:11.253Z,102116.75
2022-11-30T22:31:40.366Z,102124.94
2022-11-30T22:34:07.522Z,102126.69
2022-11-30T22:36:36.462Z,102119.72
2022-11-30T22:39:03.012Z,102130.19
2022-11-30T22:41:30.751Z,102135.25
2022-11-30T22:43:58.784Z,102127.44
2022-11-30T22:46:31.124Z,102123.09
2022-11-30T22:49:02.652Z,102132.47
2022-11-30T22:51:32.241Z,102126.50
2022-11-30T22:54:00.081Z,102137.75
2022-11-30T22:56:32.736Z,102115.94
2022-11-30T22:59:00.969Z,102113.28
2022-11-30T23:01:30.738Z,102133.19
2022-11-30T23:04:12.208Z,102133.38
2022-11-30T23:06:40.399Z,102123.56
2022-11-30T23:09:10.947Z,102125.16
2022-11-30T23:11:38.009Z,102112.16
2022-11-30T23:14:08.267Z,102127.25
2022-11-30T23:16:36.379Z,102112.25
2022-11-30T23:19:03.581Z,102115.75
2022-11-30T23:21:41.010Z,102125.31
2022-11-30T23:24:12.534Z,102122.75
2022-11-30T23:26:39.866Z,102130.75
2022-11-30T23:29:10.245Z,102129.13
2022-11-30T23:31:39.734Z,102127.28
2022-11-30T23:34:10.778Z,102122.81
2022-11-30T23:36:38.273Z,102105.63
2022-11-30T23:39:08.202Z,102123.72
2022-11-30T23:41:35.591Z,102125.66
2022-11-30T23:44:02.870Z,102126.66
2022-11-30T23:46:30.073Z,102127.56
2022-11-30T23:48:57.057Z,102107.66
2022-11-30T23:51:24.715Z,102111.91
2022-11-30T23:53:51.520Z,102088.59
2022-11-30T23:56:19.650Z,102106.66
2022-11-30T23:58:46.910Z,102110.16
